Terminal Aerodrome Forecast
Issued by NWS Topeka, KS

Home | Current Version | Previous Version | Text Only | Print | Product List | Glossary On
Versions: 1 2 3 4 5 6 7 8 9 10 11 12 13 14 15
000
FTUS43 KTOP 191700
TAFTOP
TAF
KTOP 191720Z 1918/2018 18018G26KT P6SM SCT250
     FM200100 16010KT P6SM BKN250
     FM201400 18012G19KT P6SM SCT070 BKN150=

USA.gov is the U.S. government's official web portal to all federal, state and local government web resources and services.